This is the latest recevied weather packets stored in our database for station/object EW2905. If no packets are shown the sender has not sent any weather packets the latest 10 day(s).
| Time | Temp. | Humidity | Pressure | Rain* | Wind** | Luminosity | Snow |
|---|---|---|---|---|---|---|---|
| 1777728455 | 23.89° C | 25% | 1023.1 hPa | 0 mm | - | - | - |
| 1777728274 | 25° C | 23% | 1023.1 hPa | 0 mm | - | - | - |
| 1777728095 | 24.44° C | 25% | 1023.1 hPa | 0 mm | - | - | - |
| 1777727915 | 23.89° C | 25% | 1023.1 hPa | 0 mm | - | - | - |
| 1777727735 | 23.89° C | 26% | 1023.1 hPa | 0 mm | - | - | - |
| 1777727555 | 23.33° C | 26% | 1023.1 hPa | 0 mm | - | - | - |
| 1777727375 | 24.44° C | 26% | 1023.1 hPa | 0 mm | - | - | - |
| 1777727194 | 25° C | 23% | 1023.1 hPa | 0 mm | - | - | - |
| 1777727014 | 24.44° C | 25% | 1023.1 hPa | 0 mm | - | - | - |
| 1777726835 | 23.89° C | 27% | 1023.1 hPa | 0 mm | - | - | - |
| 1777726655 | 23.33° C | 31% | 1023.1 hPa | 0 mm | - | - | - |
| 1777726475 | 23.33° C | 33% | 1023.1 hPa | 0 mm | - | - | - |
| 1777726295 | 23.33° C | 30% | 1023.1 hPa | 0 mm | - | - | - |
| 1777726115 | 24.44° C | 28% | 1023.1 hPa | 0 mm | - | - | - |
| 1777725935 | 25° C | 24% | 1023.1 hPa | 0 mm | - | - | - |
| 1777725755 | 24.44° C | 28% | 1023.1 hPa | 0 mm | - | - | - |
| 1777725575 | 24.44° C | 25% | 1023.1 hPa | 0 mm | - | - | - |
| 1777725395 | 25° C | 24% | 1023.1 hPa | 0 mm | - | - | - |
| 1777725215 | 24.44° C | 25% | 1023.1 hPa | 0 mm | - | - | - |
| 1777725035 | 23.89° C | 26% | 1023.1 hPa | 0 mm | - | - | - |
| 1777724855 | 23.89° C | 25% | 1023.1 hPa | 0 mm | - | - | - |
| 1777724675 | 23.89° C | 29% | 1023.1 hPa | 0 mm | - | - | - |
| 1777724495 | 23.33° C | 27% | 1023.1 hPa | 0 mm | - | - | - |
| 1777724315 | 23.33° C | 28% | 1023.1 hPa | 0 mm | - | - | - |
| 1777724135 | 23.33° C | 28% | 1023.1 hPa | 0 mm | - | - | - |
* Rain latest hour (hover to see other rain measurements)
** Current wind speed in m/s (hover to see current wind gust speed)